Search METAR Data

METAR Data for ENNM:

ENNM 220420Z 07011KT CAVOK 10/05 Q1020